createdAt,value
2018-11-28T00:00:24.661Z,73.03
2018-11-28T00:02:53.339Z,71.61
2018-11-28T00:05:22.001Z,71.59
2018-11-28T00:07:50.645Z,71.39
2018-11-28T00:10:19.264Z,72.19
2018-11-28T00:12:47.987Z,71.62
2018-11-28T00:15:16.807Z,70.84
2018-11-28T00:17:45.480Z,71.14
2018-11-28T00:20:15.196Z,72.42
2018-11-28T00:22:44.230Z,72.52
2018-11-28T00:25:13.622Z,72.22
2018-11-28T00:27:42.402Z,73.20
2018-11-28T00:30:19.344Z,71.60
2018-11-28T00:32:48.010Z,72.44
2018-11-28T00:35:17.592Z,72.34
2018-11-28T00:37:46.280Z,72.46
2018-11-28T00:40:15.966Z,72.52
2018-11-28T00:42:44.635Z,70.87
2018-11-28T00:45:15.116Z,71.40
2018-11-28T00:47:43.775Z,71.26
2018-11-28T00:50:13.400Z,72.59
2018-11-28T00:52:42.079Z,72.95
2018-11-28T00:55:12.631Z,72.26
2018-11-28T00:57:41.408Z,73.15
2018-11-28T01:00:15.115Z,73.65
2018-11-28T01:02:43.834Z,73.30
2018-11-28T01:05:13.025Z,73.47
2018-11-28T01:07:42.298Z,73.22
2018-11-28T01:10:15.776Z,73.29
2018-11-28T01:12:44.478Z,72.89
2018-11-28T01:15:14.035Z,73.33
2018-11-28T01:17:42.687Z,74.65
2018-11-28T01:20:12.425Z,74.21
2018-11-28T01:22:41.141Z,73.88
2018-11-28T01:25:11.525Z,74.39
2018-11-28T01:27:40.233Z,74.39
2018-11-28T01:30:11.971Z,73.95
2018-11-28T01:32:40.785Z,74.14
2018-11-28T01:35:12.293Z,74.75
2018-11-28T01:37:41.175Z,74.37
2018-11-28T01:40:12.034Z,75.20
2018-11-28T01:42:40.737Z,75.58
2018-11-28T01:45:10.724Z,74.94
2018-11-28T01:47:39.384Z,74.74
2018-11-28T01:50:10.441Z,74.17
2018-11-28T01:52:39.147Z,74.81
2018-11-28T01:55:09.199Z,75.72
2018-11-28T01:57:37.839Z,74.63
2018-11-28T02:00:24.973Z,74.95
2018-11-28T02:02:55.009Z,75.03
2018-11-28T02:05:23.707Z,75.35
2018-11-28T02:07:52.446Z,76.04
2018-11-28T02:10:21.084Z,74.89
2018-11-28T02:12:49.756Z,75.62
2018-11-28T02:15:20.315Z,74.99
2018-11-28T02:17:49.008Z,74.78
2018-11-28T02:20:18.166Z,74.49
2018-11-28T02:22:47.063Z,75.23
2018-11-28T02:25:17.425Z,74.62
2018-11-28T02:27:46.680Z,74.38
2018-11-28T02:30:16.294Z,74.93
2018-11-28T02:32:45.302Z,74.96
2018-11-28T02:35:14.797Z,75.40
2018-11-28T02:37:43.554Z,74.68
2018-11-28T02:40:14.081Z,74.45
2018-11-28T02:42:42.766Z,74.02
2018-11-28T02:45:16.396Z,73.87
2018-11-28T02:47:45.116Z,74.07
2018-11-28T02:50:13.801Z,73.82
2018-11-28T02:52:42.453Z,74.64
2018-11-28T02:55:12.027Z,74.16
2018-11-28T02:57:41.119Z,73.91
2018-11-28T03:00:18.118Z,73.86
2018-11-28T03:02:46.768Z,73.20
2018-11-28T03:05:15.537Z,72.75
2018-11-28T03:07:44.208Z,74.40
2018-11-28T03:10:14.939Z,73.19
2018-11-28T03:12:43.635Z,74.16
2018-11-28T03:15:15.446Z,74.72
2018-11-28T03:17:44.135Z,74.06
2018-11-28T03:20:12.876Z,72.82
2018-11-28T03:22:41.603Z,73.83
2018-11-28T03:25:11.376Z,73.19
2018-11-28T03:27:40.029Z,74.00
2018-11-28T03:30:12.787Z,73.65
2018-11-28T03:32:41.542Z,72.44
2018-11-28T03:35:11.736Z,72.65
2018-11-28T03:37:40.436Z,72.44
2018-11-28T03:40:09.239Z,72.24
2018-11-28T03:42:37.872Z,72.28
2018-11-28T03:45:09.281Z,72.91
2018-11-28T03:47:37.918Z,72.34
2018-11-28T03:50:07.970Z,72.06
2018-11-28T03:52:36.723Z,72.94
2018-11-28T03:55:06.888Z,72.68
2018-11-28T03:57:35.503Z,72.53
2018-11-28T04:00:05.588Z,73.06
2018-11-28T04:02:34.256Z,73.62
2018-11-28T04:05:02.920Z,72.77
2018-11-28T04:07:31.528Z,73.01
2018-11-28T04:10:00.176Z,72.67
2018-11-28T04:12:28.787Z,72.55
2018-11-28T04:14:57.547Z,72.95
2018-11-28T04:17:26.167Z,73.31
2018-11-28T04:19:54.800Z,72.44
2018-11-28T04:22:23.431Z,73.28
2018-11-28T04:24:52.067Z,73.23
2018-11-28T04:27:20.683Z,73.21
2018-11-28T04:29:49.353Z,72.73
2018-11-28T04:32:18.091Z,73.69
2018-11-28T04:34:46.819Z,72.60
2018-11-28T04:37:15.939Z,72.66
2018-11-28T04:39:44.584Z,72.70
2018-11-28T04:42:13.209Z,73.17
2018-11-28T04:44:41.848Z,72.57
2018-11-28T04:47:10.455Z,72.93
2018-11-28T04:49:39.116Z,72.93
2018-11-28T04:52:07.725Z,74.00
2018-11-28T04:54:36.380Z,74.58
2018-11-28T04:57:05.089Z,72.80
2018-11-28T04:59:33.741Z,72.45
2018-11-28T05:02:02.359Z,72.28
2018-11-28T05:04:30.992Z,72.20
2018-11-28T05:07:30.484Z,71.34
2018-11-28T05:09:59.549Z,71.42
2018-11-28T05:12:28.252Z,71.52
2018-11-28T05:14:56.975Z,71.04
2018-11-28T05:17:25.608Z,71.32
2018-11-28T05:19:54.239Z,71.84
2018-11-28T05:22:22.855Z,70.73
2018-11-28T05:24:51.523Z,71.32
2018-11-28T05:27:20.167Z,70.58
2018-11-28T05:29:48.892Z,70.49
2018-11-28T05:32:17.527Z,70.20
2018-11-28T05:34:47.411Z,70.28
2018-11-28T05:37:16.056Z,70.94
2018-11-28T05:39:44.680Z,71.01
2018-11-28T05:42:13.376Z,70.47
2018-11-28T05:44:42.222Z,70.34
2018-11-28T05:47:10.845Z,70.42
2018-11-28T05:49:39.555Z,70.10
2018-11-28T05:52:08.209Z,69.84
2018-11-28T05:54:36.866Z,69.41
2018-11-28T05:57:05.891Z,70.44
2018-11-28T05:59:34.560Z,70.95
2018-11-28T06:02:03.216Z,69.80
2018-11-28T06:04:31.872Z,69.99
2018-11-28T06:07:01.965Z,70.48
2018-11-28T06:09:30.703Z,71.28
2018-11-28T06:11:59.329Z,71.98
2018-11-28T06:14:27.983Z,71.87
2018-11-28T06:16:56.648Z,72.07
2018-11-28T06:19:25.664Z,71.45
2018-11-28T06:21:54.366Z,72.04
2018-11-28T06:24:22.996Z,73.29
2018-11-28T06:26:51.636Z,72.71
2018-11-28T06:29:20.396Z,71.87
2018-11-28T06:31:49.033Z,71.22
2018-11-28T06:34:17.660Z,72.42
2018-11-28T06:36:46.570Z,72.05
2018-11-28T06:39:15.199Z,71.67
2018-11-28T06:41:43.819Z,71.84
2018-11-28T06:44:12.510Z,71.46
2018-11-28T06:46:41.156Z,72.19
2018-11-28T06:49:10.204Z,72.79
2018-11-28T06:51:38.897Z,72.32
2018-11-28T06:54:07.557Z,72.90
2018-11-28T06:56:36.259Z,73.73
2018-11-28T06:59:05.373Z,72.76
2018-11-28T07:01:34.032Z,72.94
2018-11-28T07:04:02.792Z,72.25
2018-11-28T07:06:31.523Z,72.88
2018-11-28T07:09:00.252Z,72.33
2018-11-28T07:11:28.972Z,72.30
2018-11-28T07:13:57.651Z,72.05
2018-11-28T07:16:27.126Z,72.75
2018-11-28T07:19:07.257Z,72.62
2018-11-28T07:21:36.256Z,72.77
2018-11-28T07:24:05.414Z,73.43
2018-11-28T07:26:34.139Z,72.77
2018-11-28T07:29:02.907Z,72.82
2018-11-28T07:31:31.552Z,72.44
2018-11-28T07:34:00.228Z,72.48
2018-11-28T07:36:28.926Z,71.73
2018-11-28T07:38:57.562Z,71.14
2018-11-28T07:41:26.779Z,71.22
2018-11-28T07:43:55.425Z,71.74
2018-11-28T07:46:24.075Z,72.56
2018-11-28T07:48:52.791Z,70.81
2018-11-28T07:51:21.428Z,71.34
2018-11-28T07:53:50.664Z,70.81
2018-11-28T07:56:19.314Z,73.68
2018-11-28T07:58:54.395Z,71.98
2018-11-28T08:01:23.048Z,70.52
2018-11-28T08:03:51.910Z,71.14
2018-11-28T08:06:20.736Z,70.34
2018-11-28T08:08:49.515Z,71.09
2018-11-28T08:11:18.229Z,70.86
2018-11-28T08:13:46.960Z,70.37
2018-11-28T08:16:16.125Z,69.85
2018-11-28T08:18:45.591Z,69.47
2018-11-28T08:21:14.384Z,70.60
2018-11-28T08:23:43.052Z,70.01
2018-11-28T08:26:11.769Z,70.21
2018-11-28T08:28:40.424Z,69.07
2018-11-28T08:31:09.979Z,69.50
2018-11-28T08:33:37.820Z,69.39
2018-11-28T08:36:06.815Z,69.98
2018-11-28T08:38:35.540Z,68.94
2018-11-28T08:41:04.274Z,68.93
2018-11-28T08:43:32.935Z,70.38
2018-11-28T08:46:01.556Z,68.12
2018-11-28T08:48:30.277Z,68.37
2018-11-28T08:50:58.891Z,66.72
2018-11-28T08:53:27.556Z,66.25
2018-11-28T08:55:56.200Z,67.16
2018-11-28T08:58:24.848Z,68.85
2018-11-28T09:00:53.504Z,66.05
2018-11-28T09:03:22.132Z,65.77
2018-11-28T09:05:50.748Z,65.50
2018-11-28T09:08:19.460Z,66.44
2018-11-28T09:10:48.114Z,66.24
2018-11-28T09:13:16.875Z,66.94
2018-11-28T09:15:45.516Z,65.81
2018-11-28T09:18:14.193Z,66.61
2018-11-28T09:20:42.820Z,67.05
2018-11-28T09:23:11.448Z,66.28
2018-11-28T09:25:40.104Z,66.90
2018-11-28T09:28:08.745Z,66.58
2018-11-28T09:30:37.372Z,65.60
2018-11-28T09:33:06.588Z,65.61
2018-11-28T09:35:35.228Z,64.89
2018-11-28T09:38:04.228Z,66.90
2018-11-28T09:40:32.871Z,65.53
2018-11-28T09:43:01.500Z,64.28
2018-11-28T09:45:30.162Z,63.64
2018-11-28T09:47:58.795Z,63.98
2018-11-28T09:50:27.620Z,65.50
2018-11-28T09:52:56.596Z,64.37
2018-11-28T09:55:27.032Z,64.95
2018-11-28T09:57:55.928Z,63.98
2018-11-28T10:00:26.496Z,64.13
2018-11-28T10:02:58.040Z,65.59
2018-11-28T10:05:32.486Z,64.86
2018-11-28T10:08:01.323Z,64.51
2018-11-28T10:10:29.994Z,64.71
2018-11-28T10:12:58.724Z,65.15
2018-11-28T10:15:28.272Z,63.36
2018-11-28T10:17:56.979Z,63.36
2018-11-28T10:20:25.669Z,64.32
2018-11-28T10:22:54.397Z,65.74
2018-11-28T10:25:26.751Z,63.29
2018-11-28T10:27:59.712Z,65.19
2018-11-28T10:30:29.602Z,62.66
2018-11-28T10:32:58.308Z,64.63
2018-11-28T10:35:27.002Z,64.49
2018-11-28T10:37:55.708Z,63.52
2018-11-28T10:40:24.903Z,63.23
2018-11-28T10:42:55.652Z,63.08
2018-11-28T10:45:25.112Z,65.37
2018-11-28T10:47:53.808Z,63.18
2018-11-28T10:50:22.502Z,62.12
2018-11-28T10:52:51.241Z,62.95
2018-11-28T10:55:20.770Z,64.12
2018-11-28T10:57:49.548Z,64.10
2018-11-28T11:00:26.119Z,62.49
2018-11-28T11:02:59.858Z,65.49
2018-11-28T11:05:33.536Z,62.57
2018-11-28T11:08:07.307Z,62.60
2018-11-28T11:10:41.042Z,64.36
2018-11-28T11:13:16.416Z,63.31
2018-11-28T11:15:49.315Z,63.74
2018-11-28T11:18:17.987Z,61.04
2018-11-28T11:20:46.615Z,60.82
2018-11-28T11:23:15.348Z,60.64
2018-11-28T11:25:44.075Z,61.53
2018-11-28T11:28:12.723Z,62.72
2018-11-28T11:30:41.523Z,62.90
2018-11-28T11:33:10.176Z,61.54
2018-11-28T11:35:38.881Z,61.23
2018-11-28T11:38:07.548Z,60.63
2018-11-28T11:40:36.227Z,59.40
2018-11-28T11:43:05.189Z,60.65
2018-11-28T11:45:33.923Z,58.96
2018-11-28T11:48:02.572Z,61.16
2018-11-28T11:50:31.255Z,61.39
2018-11-28T11:52:59.904Z,61.76
2018-11-28T11:55:28.576Z,59.97
2018-11-28T11:57:57.455Z,60.50
2018-11-28T12:00:26.719Z,59.84
2018-11-28T12:03:00.921Z,59.39
2018-11-28T12:05:29.611Z,58.59
2018-11-28T12:07:58.239Z,59.95
2018-11-28T12:10:26.896Z,59.30
2018-11-28T12:12:55.638Z,61.67
2018-11-28T12:15:24.323Z,60.22
2018-11-28T12:17:52.996Z,58.98
2018-11-28T12:20:28.091Z,58.65
2018-11-28T12:22:56.710Z,58.28
2018-11-28T12:25:25.397Z,56.39
2018-11-28T12:27:54.031Z,55.67
2018-11-28T12:30:22.754Z,56.06
2018-11-28T12:32:51.379Z,56.09
2018-11-28T12:35:20.381Z,55.04
2018-11-28T12:37:48.983Z,56.52
2018-11-28T12:40:17.873Z,55.13
2018-11-28T12:42:48.236Z,54.47
2018-11-28T12:45:17.771Z,53.15
2018-11-28T12:47:47.036Z,54.30
2018-11-28T12:50:23.473Z,55.38
2018-11-28T12:52:52.854Z,55.46
2018-11-28T12:55:21.919Z,55.67
2018-11-28T12:57:51.211Z,51.28
2018-11-28T13:00:21.820Z,51.93
2018-11-28T13:02:50.732Z,52.23
2018-11-28T13:05:21.642Z,49.24
2018-11-28T13:07:50.319Z,48.69
2018-11-28T13:10:21.064Z,48.90
2018-11-28T13:12:50.505Z,49.35
2018-11-28T13:15:20.175Z,50.15
2018-11-28T13:17:48.964Z,50.23
2018-11-28T13:20:18.504Z,50.74
2018-11-28T13:22:48.087Z,51.80
2018-11-28T13:25:19.786Z,54.25
2018-11-28T13:27:48.485Z,55.16
2018-11-28T13:30:19.718Z,54.83
2018-11-28T13:32:48.912Z,55.75
2018-11-28T13:35:21.437Z,56.82
2018-11-28T13:37:51.038Z,57.19
2018-11-28T13:40:20.592Z,59.85
2018-11-28T13:42:49.628Z,57.92
2018-11-28T13:45:22.400Z,58.75
2018-11-28T13:47:52.920Z,61.31
2018-11-28T13:50:21.596Z,59.82
2018-11-28T13:52:50.662Z,62.24
2018-11-28T13:55:42.917Z,60.09
2018-11-28T13:57:52.549Z,60.81
2018-11-28T14:00:21.372Z,61.72
2018-11-28T14:02:50.075Z,60.96
2018-11-28T14:05:18.751Z,61.67
2018-11-28T14:07:47.522Z,62.13
2018-11-28T14:10:16.432Z,62.20
2018-11-28T14:12:45.403Z,61.61
2018-11-28T14:15:20.006Z,63.59
2018-11-28T14:17:52.014Z,67.27
2018-11-28T14:20:20.676Z,62.47
2018-11-28T14:22:49.317Z,62.04
2018-11-28T14:25:18.033Z,64.99
2018-11-28T14:27:46.668Z,63.87
2018-11-28T14:30:20.064Z,66.34
2018-11-28T14:32:48.834Z,65.19
2018-11-28T14:35:17.764Z,64.58
2018-11-28T14:37:46.527Z,64.48
2018-11-28T14:40:16.252Z,65.94
2018-11-28T14:42:45.928Z,63.39
2018-11-28T14:45:15.614Z,66.43
2018-11-28T14:47:44.555Z,67.42
2018-11-28T14:50:15.544Z,64.22
2018-11-28T14:52:45.066Z,64.19
2018-11-28T14:55:15.060Z,66.99
2018-11-28T14:57:43.770Z,64.80
2018-11-28T15:00:21.925Z,66.01
2018-11-28T15:02:53.608Z,67.00
2018-11-28T15:06:27.213Z,67.20
2018-11-28T15:09:01.168Z,66.46
2018-11-28T15:11:29.822Z,68.26
2018-11-28T15:13:58.471Z,67.88
2018-11-28T15:16:27.115Z,67.87
2018-11-28T15:18:55.832Z,68.39
2018-11-28T15:21:24.449Z,68.78
2018-11-28T15:23:53.135Z,69.41
2018-11-28T15:26:21.778Z,67.92
2018-11-28T15:28:50.686Z,69.88
2018-11-28T15:31:19.408Z,69.55
2018-11-28T15:33:48.054Z,68.83
2018-11-28T15:36:17.785Z,69.91
2018-11-28T15:38:46.432Z,71.08
2018-11-28T15:41:15.221Z,68.45
2018-11-28T15:43:44.028Z,69.28
2018-11-28T15:46:15.052Z,69.54
2018-11-28T15:48:41.388Z,69.99
2018-11-28T15:51:10.028Z,69.63
2018-11-28T15:53:38.779Z,70.04
2018-11-28T15:56:07.621Z,70.05
2018-11-28T15:58:36.479Z,69.47
2018-11-28T16:01:05.263Z,69.74
2018-11-28T16:03:34.028Z,69.67
2018-11-28T16:06:02.963Z,70.19
2018-11-28T16:08:31.687Z,71.01
2018-11-28T16:11:00.442Z,70.33
2018-11-28T16:13:29.215Z,70.42
2018-11-28T16:15:58.839Z,70.05
2018-11-28T16:18:27.599Z,68.96
2018-11-28T16:20:56.392Z,69.02
2018-11-28T16:23:25.155Z,69.22
2018-11-28T16:25:54.168Z,71.33
2018-11-28T16:28:22.902Z,71.38
2018-11-28T16:30:55.697Z,70.31
2018-11-28T16:33:24.795Z,69.92
2018-11-28T16:35:54.142Z,70.57
2018-11-28T16:38:22.943Z,72.44
2018-11-28T16:40:51.791Z,71.03
2018-11-28T16:43:20.558Z,71.37
2018-11-28T16:45:49.364Z,71.68
2018-11-28T16:48:18.119Z,71.14
2018-11-28T16:50:46.913Z,71.30
2018-11-28T16:53:15.655Z,71.43
2018-11-28T16:55:44.404Z,72.07
2018-11-28T16:58:13.162Z,71.78
2018-11-28T17:00:43.676Z,70.54
2018-11-28T17:03:12.463Z,71.00
2018-11-28T17:05:41.275Z,72.75
2018-11-28T17:08:10.508Z,71.25
2018-11-28T17:10:39.233Z,71.14
2018-11-28T17:13:08.073Z,71.81
2018-11-28T17:15:37.108Z,72.87
2018-11-28T17:18:06.531Z,72.43
2018-11-28T17:20:35.955Z,71.98
2018-11-28T17:23:05.637Z,71.15
2018-11-28T17:25:34.327Z,72.54
2018-11-28T17:28:03.903Z,73.37
2018-11-28T17:30:33.497Z,72.14
2018-11-28T17:33:04.110Z,71.50
2018-11-28T17:35:32.919Z,71.68
2018-11-28T17:38:01.689Z,70.80
2018-11-28T17:40:30.528Z,71.17
2018-11-28T17:43:00.033Z,70.83
2018-11-28T17:45:29.394Z,72.20
2018-11-28T17:47:58.144Z,71.42
2018-11-28T17:50:27.371Z,70.98
2018-11-28T17:53:02.327Z,73.22
2018-11-28T17:55:33.377Z,71.78
2018-11-28T17:58:02.155Z,72.45
2018-11-28T18:00:30.945Z,72.90
2018-11-28T18:02:59.672Z,73.25
2018-11-28T18:05:28.360Z,73.64
2018-11-28T18:07:57.093Z,73.96
2018-11-28T18:10:25.807Z,73.46
2018-11-28T18:13:06.148Z,75.86
2018-11-28T18:15:35.356Z,74.17
2018-11-28T18:18:04.347Z,74.89
2018-11-28T18:20:33.104Z,75.56
2018-11-28T18:23:02.578Z,74.66
2018-11-28T18:25:32.303Z,74.10
2018-11-28T18:28:01.316Z,74.85
2018-11-28T18:30:30.017Z,75.48
2018-11-28T18:32:58.788Z,75.93
2018-11-28T18:35:27.551Z,75.18
2018-11-28T18:37:56.293Z,75.38
2018-11-28T18:40:25.003Z,77.06
2018-11-28T18:42:53.749Z,75.33
2018-11-28T18:45:23.877Z,76.26
2018-11-28T18:47:52.587Z,75.17
2018-11-28T18:50:21.479Z,77.62
2018-11-28T18:52:50.704Z,76.50
2018-11-28T18:55:21.656Z,75.62
2018-11-28T18:57:54.855Z,75.57
2018-11-28T19:00:24.716Z,75.27
2018-11-28T19:02:53.904Z,75.27
2018-11-28T19:05:22.595Z,76.07
2018-11-28T19:07:51.447Z,74.92
2018-11-28T19:10:26.039Z,74.81
2018-11-28T19:12:49.957Z,75.71
2018-11-28T19:15:19.937Z,74.52
2018-11-28T19:17:49.139Z,74.02
2018-11-28T19:20:18.899Z,76.29
2018-11-28T19:22:48.338Z,74.80
2018-11-28T19:25:22.072Z,75.50
2018-11-28T19:27:50.879Z,77.92
2018-11-28T19:30:32.044Z,78.54
2018-11-28T19:33:00.803Z,77.25
2018-11-28T19:35:29.718Z,79.12
2018-11-28T19:37:58.492Z,76.26
2018-11-28T19:40:34.305Z,76.90
2018-11-28T19:43:03.094Z,76.40
2018-11-28T19:45:31.800Z,77.50
2018-11-28T19:48:00.535Z,77.53
2018-11-28T19:50:30.964Z,78.04
2018-11-28T19:52:59.737Z,77.79
2018-11-28T19:55:28.436Z,77.84
2018-11-28T19:57:57.244Z,76.24
2018-11-28T20:00:26.339Z,75.32
2018-11-28T20:02:55.087Z,77.09
2018-11-28T20:05:23.851Z,75.67
2018-11-28T20:07:52.605Z,77.65
2018-11-28T20:10:22.279Z,76.15
2018-11-28T20:12:51.199Z,74.33
2018-11-28T20:15:24.175Z,74.80
2018-11-28T20:17:52.964Z,76.57
2018-11-28T20:20:21.877Z,76.20
2018-11-28T20:22:50.724Z,76.08
2018-11-28T20:25:21.317Z,74.90
2018-11-28T20:27:53.336Z,75.24
2018-11-28T20:30:25.722Z,76.12
2018-11-28T20:32:54.458Z,76.94
2018-11-28T20:35:23.177Z,75.93
2018-11-28T20:37:51.998Z,74.71
2018-11-28T20:40:20.731Z,75.94
2018-11-28T20:42:50.689Z,75.65
2018-11-28T20:45:19.456Z,76.93
2018-11-28T20:47:48.259Z,76.08
2018-11-28T20:50:21.428Z,75.17
2018-11-28T20:52:54.948Z,76.02
2018-11-28T20:55:20.645Z,76.29
2018-11-28T20:57:49.380Z,75.32
2018-11-28T21:00:19.529Z,75.16
2018-11-28T21:02:48.321Z,75.29
2018-11-28T21:05:17.117Z,74.71
2018-11-28T21:07:45.860Z,74.79
2018-11-28T21:10:20.612Z,74.41
2018-11-28T21:12:49.311Z,73.88
2018-11-28T21:15:18.018Z,73.83
2018-11-28T21:17:47.172Z,74.62
2018-11-28T21:20:20.001Z,74.00
2018-11-28T21:22:50.980Z,73.97
2018-11-28T21:25:19.716Z,74.35
2018-11-28T21:27:48.430Z,73.95
2018-11-28T21:30:18.175Z,74.05
2018-11-28T21:32:46.943Z,74.86
2018-11-28T21:35:25.461Z,73.99
2018-11-28T21:37:54.199Z,73.12
2018-11-28T21:40:22.939Z,73.78
2018-11-28T21:42:58.268Z,73.58
2018-11-28T21:45:27.184Z,72.38
2018-11-28T21:47:55.922Z,72.72
2018-11-28T21:50:24.648Z,72.21
2018-11-28T21:52:53.367Z,71.96
2018-11-28T21:55:23.989Z,72.81
2018-11-28T21:57:52.818Z,73.10
2018-11-28T22:00:23.440Z,72.88
2018-11-28T22:02:52.227Z,73.66
2018-11-28T22:05:21.097Z,72.38
2018-11-28T22:07:49.865Z,72.14
2018-11-28T22:10:22.326Z,73.70
2018-11-28T22:12:51.110Z,72.34
2018-11-28T22:15:19.971Z,72.31
2018-11-28T22:17:53.308Z,74.08
2018-11-28T22:20:22.174Z,72.04
2018-11-28T22:22:50.876Z,72.24
2018-11-28T22:25:21.475Z,72.75
2018-11-28T22:27:50.251Z,72.46
2018-11-28T22:30:19.979Z,73.84
2018-11-28T22:32:48.739Z,74.91
2018-11-28T22:35:17.455Z,74.22
2018-11-28T22:37:46.203Z,73.76
2018-11-28T22:40:17.894Z,73.11
2018-11-28T22:42:46.599Z,73.09
2018-11-28T22:45:19.435Z,73.46
2018-11-28T22:47:48.187Z,73.28
2018-11-28T22:50:16.916Z,73.31
2018-11-28T22:52:45.680Z,72.63
2018-11-28T22:55:16.019Z,72.16
2018-11-28T22:57:44.808Z,75.75
2018-11-28T23:00:27.923Z,72.29
2018-11-28T23:03:00.048Z,73.07
2018-11-28T23:05:29.762Z,73.61
2018-11-28T23:07:59.518Z,72.65
2018-11-28T23:10:28.252Z,72.78
2018-11-28T23:12:57.005Z,73.17
2018-11-28T23:15:25.812Z,72.41
2018-11-28T23:17:55.465Z,72.06
2018-11-28T23:20:23.359Z,72.77
2018-11-28T23:22:52.132Z,71.83
2018-11-28T23:25:20.892Z,71.49
2018-11-28T23:27:49.767Z,72.47
2018-11-28T23:30:22.188Z,71.42
2018-11-28T23:32:51.630Z,70.86
2018-11-28T23:35:20.373Z,71.30
2018-11-28T23:37:49.655Z,72.55
2018-11-28T23:40:21.217Z,71.81
2018-11-28T23:42:50.161Z,73.01
2018-11-28T23:45:18.904Z,72.30
2018-11-28T23:47:47.720Z,73.49
2018-11-28T23:50:20.186Z,73.84
2018-11-28T23:52:49.327Z,72.10
2018-11-28T23:55:22.591Z,72.06
2018-11-28T23:57:51.435Z,71.68
